Time,TemperatureF,DewpointF,PressureIn,WindDirection,WindDirectionDegrees,WindSpeedMPH,WindSpeedGustMPH,Humidity,HourlyPrecipIn,Conditions,Clouds,dailyrainin,SolarRadiationWatts/m^2,SoftwareType,DateUTC
2013-12-16 00:02:00,11.8,9.0,29.74,WSW,252,2.0,5.0,88,0.00,,,0.00,0,weatherlink.com 1.10,2013-12-16 05:02:00,
2013-12-16 00:17:00,11.8,9.0,29.74,WSW,251,3.0,8.0,88,0.00,,,0.00,0,weatherlink.com 1.10,2013-12-16 05:17:00,
2013-12-16 00:32:00,11.6,9.0,29.75,West,268,4.0,8.0,88,0.00,,,0.00,0,weatherlink.com 1.10,2013-12-16 05:32:00,
2013-12-16 00:47:00,10.8,8.0,29.76,West,280,4.0,8.0,87,0.00,,,0.00,0,weatherlink.com 1.10,2013-12-16 05:47:00,
2013-12-16 01:02:00,9.5,6.0,29.77,WNW,285,8.0,8.0,87,0.00,,,0.00,0,weatherlink.com 1.10,2013-12-16 06:02:00,
2013-12-16 01:17:00,8.0,5.0,29.78,NW,317,7.0,14.0,86,0.00,,,0.00,0,weatherlink.com 1.10,2013-12-16 06:17:00,
2013-12-16 01:33:00,7.0,4.0,29.80,WNW,290,6.0,16.0,86,0.00,,,0.00,0,weatherlink.com 1.10,2013-12-16 06:33:00,
2013-12-16 01:48:00,6.8,4.0,29.81,WSW,248,6.0,9.0,87,0.00,,,0.00,0,weatherlink.com 1.10,2013-12-16 06:48:00,
2013-12-16 02:03:00,6.3,3.0,29.83,WSW,256,3.0,9.0,86,0.00,,,0.00,0,weatherlink.com 1.10,2013-12-16 07:03:00,
2013-12-16 02:18:00,5.5,2.0,29.84,West,263,4.0,8.0,86,0.00,,,0.00,0,weatherlink.com 1.10,2013-12-16 07:18:00,
2013-12-16 02:33:00,5.0,4.0,29.85,West,272,5.0,11.0,97,0.00,,,0.00,0,weatherlink.com 1.10,2013-12-16 07:33:00,
2013-12-16 02:48:00,4.4,1.0,29.86,West,260,7.0,13.0,84,0.00,,,0.00,0,weatherlink.com 1.10,2013-12-16 07:48:00,
2013-12-16 03:03:00,3.8,0.0,29.87,WNW,294,5.0,8.0,84,0.00,,,0.00,0,weatherlink.com 1.10,2013-12-16 08:03:00,
2013-12-16 03:18:00,3.3,-1.0,29.88,West,279,3.0,8.0,84,0.00,,,0.00,0,weatherlink.com 1.10,2013-12-16 08:18:00,
2013-12-16 03:33:00,2.9,-1.0,29.88,SW,235,3.0,5.0,84,0.00,,,0.00,0,weatherlink.com 1.10,2013-12-16 08:33:00,
2013-12-16 03:48:00,2.6,-1.0,29.89,WNW,282,5.0,8.0,85,0.00,,,0.00,0,weatherlink.com 1.10,2013-12-16 08:48:00,
2013-12-16 04:03:00,1.9,-2.0,29.90,WSW,239,2.0,9.0,84,0.00,,,0.00,0,weatherlink.com 1.10,2013-12-16 09:03:00,
2013-12-16 04:18:00,1.5,-2.0,29.91,WSW,243,4.0,9.0,84,0.00,,,0.00,0,weatherlink.com 1.10,2013-12-16 09:18:00,
2013-12-16 04:33:00,1.0,-3.0,29.91,WSW,254,5.0,7.0,84,0.00,,,0.00,0,weatherlink.com 1.10,2013-12-16 09:33:00,
2013-12-16 04:48:00,0.8,-3.0,29.92,WSW,239,4.0,10.0,84,0.00,,,0.00,0,weatherlink.com 1.10,2013-12-16 09:48:00,
2013-12-16 05:04:00,0.3,-3.0,29.93,SW,232,5.0,8.0,84,0.00,,,0.00,0,weatherlink.com 1.10,2013-12-16 10:04:00,
2013-12-16 05:19:00,-0.7,-5.0,29.94,South,183,2.0,5.0,83,0.00,,,0.00,0,weatherlink.com 1.10,2013-12-16 10:19:00,
2013-12-16 05:34:00,-0.8,-5.0,29.95,SW,223,1.0,9.0,84,0.00,,,0.00,0,weatherlink.com 1.10,2013-12-16 10:34:00,
2013-12-16 05:49:00,-0.7,-4.0,29.95,WSW,241,3.0,8.0,84,0.00,,,0.00,0,weatherlink.com 1.10,2013-12-16 10:49:00,
2013-12-16 06:04:00,-1.1,-5.0,29.96,WSW,237,1.0,6.0,84,0.00,,,0.00,0,weatherlink.com 1.10,2013-12-16 11:04:00,
2013-12-16 06:19:00,-1.6,-5.0,29.96,WSW,246,3.0,6.0,84,0.00,,,0.00,0,weatherlink.com 1.10,2013-12-16 11:19:00,
2013-12-16 06:34:00,-1.4,-5.0,29.97,WSW,254,1.0,6.0,84,0.00,,,0.00,0,weatherlink.com 1.10,2013-12-16 11:34:00,
2013-12-16 06:49:00,-1.6,-5.0,29.97,West,273,4.0,7.0,84,0.00,,,0.00,0,weatherlink.com 1.10,2013-12-16 11:49:00,
2013-12-16 07:04:00,-1.6,-6.0,29.98,West,273,8.0,8.0,83,0.00,,,0.00,0,weatherlink.com 1.10,2013-12-16 12:04:00,
2013-12-16 07:19:00,-1.9,-6.0,29.98,SSW,209,3.0,7.0,83,0.00,,,0.00,0,weatherlink.com 1.10,2013-12-16 12:19:00,
2013-12-16 07:34:00,-3.4,-7.0,29.98,South,177,0.0,3.0,83,0.00,,,0.00,5,weatherlink.com 1.10,2013-12-16 12:34:00,
2013-12-16 07:49:00,-3.7,-8.0,29.99,SW,215,1.0,3.0,83,0.00,,,0.00,12,weatherlink.com 1.10,2013-12-16 12:49:00,
2013-12-16 08:04:00,-3.2,-7.0,29.99,South,177,1.0,2.0,84,0.00,,,0.00,18,weatherlink.com 1.10,2013-12-16 13:04:00,
2013-12-16 08:20:00,-2.9,-7.0,30.00,SSW,192,0.0,2.0,84,0.00,,,0.00,28,weatherlink.com 1.10,2013-12-16 13:20:00,
2013-12-16 08:35:00,-2.5,-6.0,30.02,SW,225,0.0,2.0,84,0.00,,,0.00,40,weatherlink.com 1.10,2013-12-16 13:35:00,
2013-12-16 08:50:00,-1.9,-6.0,30.02,South,181,0.0,2.0,84,0.00,,,0.00,53,weatherlink.com 1.10,2013-12-16 13:50:00,
2013-12-16 09:05:00,-1.4,-5.0,30.03,SSE,158,1.0,2.0,84,0.00,,,0.00,70,weatherlink.com 1.10,2013-12-16 14:05:00,
2013-12-16 09:20:00,-0.2,-4.0,30.04,SW,229,0.0,2.0,84,0.00,,,0.00,70,weatherlink.com 1.10,2013-12-16 14:20:00,
2013-12-16 09:35:00,-0.1,-4.0,30.05,SW,220,1.0,5.0,83,0.00,,,0.00,104,weatherlink.com 1.10,2013-12-16 14:35:00,
2013-12-16 09:50:00,0.2,-4.0,30.05,SW,224,5.0,6.0,83,0.00,,,0.00,127,weatherlink.com 1.10,2013-12-16 14:50:00,
2013-12-16 10:05:00,0.9,-3.0,30.06,West,261,6.0,7.0,83,0.00,,,0.00,149,weatherlink.com 1.10,2013-12-16 15:05:00,
2013-12-16 10:20:00,0.6,-3.0,30.06,West,262,4.0,8.0,83,0.00,,,0.00,155,weatherlink.com 1.10,2013-12-16 15:20:00,
2013-12-16 10:35:00,0.9,-3.0,30.06,West,277,7.0,10.0,82,0.00,,,0.00,172,weatherlink.com 1.10,2013-12-16 15:35:00,
2013-12-16 10:50:00,1.5,-3.0,30.06,WSW,250,7.0,8.0,82,0.00,,,0.00,188,weatherlink.com 1.10,2013-12-16 15:50:00,
2013-12-16 11:05:00,1.8,-3.0,30.06,WNW,296,3.0,9.0,81,0.00,,,0.00,204,weatherlink.com 1.10,2013-12-16 16:05:00,
2013-12-16 11:20:00,2.6,-2.0,30.06,SSW,213,7.0,11.0,80,0.01,,,0.01,227,weatherlink.com 1.10,2013-12-16 16:20:00,
2013-12-16 11:35:00,3.2,-2.0,30.06,SW,214,4.0,10.0,80,0.01,,,0.01,251,weatherlink.com 1.10,2013-12-16 16:35:00,
2013-12-16 11:51:00,2.9,-2.0,30.06,SW,231,4.0,11.0,80,0.01,,,0.01,278,weatherlink.com 1.10,2013-12-16 16:51:00,
2013-12-16 12:06:00,3.6,-1.0,30.06,WSW,257,11.0,11.0,80,0.00,,,0.01,301,weatherlink.com 1.10,2013-12-16 17:06:00,
2013-12-16 12:21:00,3.8,-2.0,30.06,WSW,250,5.0,9.0,78,0.00,,,0.01,320,weatherlink.com 1.10,2013-12-16 17:21:00,
2013-12-16 12:36:00,4.0,-1.0,30.06,SW,221,5.0,11.0,79,0.00,,,0.01,348,weatherlink.com 1.10,2013-12-16 17:36:00,
2013-12-16 12:51:00,5.1,0.0,30.06,West,280,6.0,10.0,79,0.00,,,0.01,320,weatherlink.com 1.10,2013-12-16 17:51:00,
2013-12-16 13:06:00,4.8,0.0,30.06,NW,305,1.0,10.0,79,0.00,,,0.01,301,weatherlink.com 1.10,2013-12-16 18:06:00,
2013-12-16 13:21:00,4.7,-1.0,30.06,WSW,257,4.0,12.0,77,0.00,,,0.01,281,weatherlink.com 1.10,2013-12-16 18:21:00,
2013-12-16 13:36:00,5.2,0.0,30.06,West,268,4.0,8.0,79,0.00,,,0.01,257,weatherlink.com 1.10,2013-12-16 18:36:00,
2013-12-16 13:51:00,4.8,-1.0,30.07,West,269,4.0,9.0,77,0.00,,,0.01,248,weatherlink.com 1.10,2013-12-16 18:51:00,
2013-12-16 14:21:00,5.1,-1.0,30.08,West,271,2.0,11.0,77,0.00,,,0.01,190,weatherlink.com 1.10,2013-12-16 19:21:00,
2013-12-16 14:36:00,5.4,-1.0,30.09,WNW,292,5.0,9.0,76,0.00,,,0.01,163,weatherlink.com 1.10,2013-12-16 19:36:00,
2013-12-16 14:51:00,5.0,-1.0,30.10,WNW,296,6.0,9.0,75,0.00,,,0.01,135,weatherlink.com 1.10,2013-12-16 19:51:00,
2013-12-16 15:07:00,4.6,-2.0,30.11,West,274,4.0,8.0,74,0.00,,,0.01,104,weatherlink.com 1.10,2013-12-16 20:07:00,
2013-12-16 15:22:00,4.5,-2.0,30.12,West,275,4.0,10.0,74,0.00,,,0.01,70,weatherlink.com 1.10,2013-12-16 20:22:00,
2013-12-16 15:37:00,4.4,-2.0,30.12,SSW,198,6.0,9.0,74,0.00,,,0.01,42,weatherlink.com 1.10,2013-12-16 20:37:00,
2013-12-16 15:52:00,4.3,-2.0,30.13,West,265,2.0,6.0,75,0.00,,,0.01,21,weatherlink.com 1.10,2013-12-16 20:52:00,
2013-12-16 16:07:00,3.6,-3.0,30.13,West,262,5.0,5.0,75,0.00,,,0.01,11,weatherlink.com 1.10,2013-12-16 21:07:00,
2013-12-16 16:22:00,3.0,-3.0,30.14,NW,317,4.0,6.0,75,0.00,,,0.01,5,weatherlink.com 1.10,2013-12-16 21:22:00,
2013-12-16 16:37:00,2.7,-3.0,30.15,NW,325,2.0,4.0,76,0.00,,,0.01,0,weatherlink.com 1.10,2013-12-16 21:37:00,
2013-12-16 16:52:00,3.0,-3.0,30.15,NW,317,2.0,5.0,76,0.00,,,0.01,0,weatherlink.com 1.10,2013-12-16 21:52:00,
2013-12-16 17:07:00,2.2,-4.0,30.16,West,261,2.0,4.0,76,0.00,,,0.01,0,weatherlink.com 1.10,2013-12-16 22:07:00,
2013-12-16 17:22:00,1.7,-4.0,30.17,West,263,3.0,4.0,77,0.00,,,0.01,0,weatherlink.com 1.10,2013-12-16 22:22:00,
2013-12-16 17:37:00,1.8,-4.0,30.17,West,259,2.0,4.0,75,0.00,,,0.01,0,weatherlink.com 1.10,2013-12-16 22:37:00,
2013-12-16 17:52:00,1.7,-4.0,30.18,NW,314,1.0,3.0,76,0.00,,,0.01,0,weatherlink.com 1.10,2013-12-16 22:52:00,
2013-12-16 18:07:00,0.5,-5.0,30.18,West,273,0.0,1.0,78,0.00,,,0.01,0,weatherlink.com 1.10,2013-12-16 23:07:00,
2013-12-16 18:22:00,1.5,-4.0,30.19,NW,311,1.0,4.0,78,0.00,,,0.01,0,weatherlink.com 1.10,2013-12-16 23:22:00,
2013-12-16 18:38:00,0.2,-5.0,30.19,ENE,75,0.0,2.0,78,0.00,,,0.01,0,weatherlink.com 1.10,2013-12-16 23:38:00,
2013-12-16 18:53:00,-1.8,-7.0,30.19,East,101,0.0,2.0,80,0.00,,,0.01,0,weatherlink.com 1.10,2013-12-16 23:53:00,
2013-12-16 19:08:00,-3.0,-7.0,30.20,South,181,1.0,2.0,82,0.00,,,0.01,0,weatherlink.com 1.10,2013-12-17 00:08:00,
2013-12-16 19:23:00,-3.5,-8.0,30.21,South,186,2.0,2.0,82,0.00,,,0.01,0,weatherlink.com 1.10,2013-12-17 00:23:00,
2013-12-16 19:38:00,-4.8,-9.0,30.21,South,185,2.0,2.0,82,0.00,,,0.01,0,weatherlink.com 1.10,2013-12-17 00:38:00,
2013-12-16 19:53:00,-5.8,-10.0,30.22,SSW,196,1.0,3.0,83,0.00,,,0.01,0,weatherlink.com 1.10,2013-12-17 00:53:00,
2013-12-16 20:08:00,-4.9,-9.0,30.23,SSW,196,0.0,1.0,83,0.00,,,0.01,0,weatherlink.com 1.10,2013-12-17 01:08:00,
2013-12-16 20:38:00,-6.5,-11.0,30.23,ESE,115,0.0,3.0,82,0.00,,,0.01,0,weatherlink.com 1.10,2013-12-17 01:38:00,
2013-12-16 20:53:00,-7.4,-12.0,30.23,NNE,27,1.0,2.0,82,0.00,,,0.01,0,weatherlink.com 1.10,2013-12-17 01:53:00,
2013-12-16 21:08:00,-7.6,-11.0,30.23,South,184,1.0,2.0,83,0.00,,,0.01,0,weatherlink.com 1.10,2013-12-17 02:08:00,
2013-12-16 21:23:00,-9.0,-13.0,30.24,South,173,2.0,3.0,81,0.00,,,0.01,0,weatherlink.com 1.10,2013-12-17 02:23:00,
2013-12-16 21:38:00,-8.9,-13.0,30.24,South,180,1.0,3.0,82,0.00,,,0.01,0,weatherlink.com 1.10,2013-12-17 02:38:00,
2013-12-16 21:53:00,-8.7,-13.0,30.24,SSE,148,0.0,3.0,82,0.00,,,0.01,0,weatherlink.com 1.10,2013-12-17 02:53:00,
2013-12-16 22:09:00,-8.8,-13.0,30.24,SE,144,2.0,3.0,82,0.00,,,0.01,0,weatherlink.com 1.10,2013-12-17 03:09:00,
2013-12-16 22:24:00,-9.1,-13.0,30.24,South,172,0.0,3.0,82,0.00,,,0.01,0,weatherlink.com 1.10,2013-12-17 03:24:00,
2013-12-16 22:39:00,-10.4,-15.0,30.24,South,179,1.0,2.0,81,0.00,,,0.01,0,weatherlink.com 1.10,2013-12-17 03:39:00,
2013-12-16 22:54:00,-10.9,-15.0,30.25,SSE,157,2.0,4.0,81,0.00,,,0.01,0,weatherlink.com 1.10,2013-12-17 03:54:00,
2013-12-16 23:09:00,-9.5,-14.0,30.25,South,182,0.0,3.0,82,0.00,,,0.01,0,weatherlink.com 1.10,2013-12-17 04:09:00,
2013-12-16 23:24:00,-11.3,-16.0,30.26,South,175,1.0,3.0,81,0.00,,,0.01,0,weatherlink.com 1.10,2013-12-17 04:24:00,
2013-12-16 23:39:00,-11.6,-16.0,30.25,SSE,168,1.0,2.0,81,0.00,,,0.01,0,weatherlink.com 1.10,2013-12-17 04:39:00,
2013-12-16 23:54:00,-10.8,-15.0,30.25,SSE,157,2.0,3.0,82,0.00,,,0.01,0,weatherlink.com 1.10,2013-12-17 04:54:00,